Current Weather

South Bend Intl

South Bend, Indiana (KSBN)

Report from: Friday, February 23, 2024 1:54 PM EST
Current time: Friday, February 23, 2024 3:00 PM EST

Nearby weather – Weather history – Daily summaries
Weather forecast

Temperature7.8°C (46.0°F)
Wind chill5.8°C (42.5°F)
Dew point0.0°C (32.0°F)
Winds 6 kts (3.1 m/s, 6.9 mph) Northwest (310°)
Visibility10 mi. (16.1 km)
Clouds Scattered clouds 2,600 ft. (792 m)
Altimeter29.67 in.Hg (1005 mB)
Relative humidity58 %
Density altitude-497 ft. (-151 m)
Sea-level pressure100.5 kPa (1005 mB, 29.68 in.Hg)
Remarks Automated weather observing station with precipitation discriminator
Flight conditions Visual Meteorological Conditions
Raw dataKSBN 231854Z 31006KT 10SM SCT026 08/00 A2967 RMK AO2 SLP052 T00780000
An error has occurred. This application may no longer respond until reloaded. Reload 🗙